sensor_id;sensor_type;location;lat;lon;timestamp;temperature;humidity
6581;DHT22;3324;50.796;7.228;2022-08-01T00:01:50;22.80;99.90
6581;DHT22;3324;50.796;7.228;2022-08-01T00:04:15;22.80;99.90
6581;DHT22;3324;50.796;7.228;2022-08-01T00:06:41;22.80;99.90
6581;DHT22;3324;50.796;7.228;2022-08-01T00:09:07;22.80;99.90
6581;DHT22;3324;50.796;7.228;2022-08-01T00:11:32;22.80;99.90
6581;DHT22;3324;50.796;7.228;2022-08-01T00:13:58;22.80;99.90
6581;DHT22;3324;50.796;7.228;2022-08-01T00:16:23;22.80;99.90
6581;DHT22;3324;50.796;7.228;2022-08-01T00:18:50;22.80;99.90
6581;DHT22;3324;50.796;7.228;2022-08-01T00:21:16;22.80;99.90
6581;DHT22;3324;50.796;7.228;2022-08-01T00:23:43;22.80;99.90
6581;DHT22;3324;50.796;7.228;2022-08-01T00:26:11;22.80;99.90
6581;DHT22;3324;50.796;7.228;2022-08-01T00:28:37;22.80;99.90
6581;DHT22;3324;50.796;7.228;2022-08-01T00:31:03;22.80;99.90
6581;DHT22;3324;50.796;7.228;2022-08-01T00:33:28;22.80;99.90
6581;DHT22;3324;50.796;7.228;2022-08-01T00:35:54;22.90;99.90
6581;DHT22;3324;50.796;7.228;2022-08-01T00:38:20;22.80;99.90
6581;DHT22;3324;50.796;7.228;2022-08-01T00:40:46;22.80;99.90
6581;DHT22;3324;50.796;7.228;2022-08-01T00:43:12;22.80;99.90
6581;DHT22;3324;50.796;7.228;2022-08-01T00:45:37;22.70;99.90
6581;DHT22;3324;50.796;7.228;2022-08-01T00:48:03;22.80;99.90
6581;DHT22;3324;50.796;7.228;2022-08-01T00:50:29;22.70;99.90
6581;DHT22;3324;50.796;7.228;2022-08-01T00:52:55;22.70;99.90
6581;DHT22;3324;50.796;7.228;2022-08-01T00:55:22;22.70;99.90
6581;DHT22;3324;50.796;7.228;2022-08-01T00:57:49;22.70;99.90
6581;DHT22;3324;50.796;7.228;2022-08-01T01:00:15;22.70;99.90
6581;DHT22;3324;50.796;7.228;2022-08-01T01:02:40;22.70;99.90
6581;DHT22;3324;50.796;7.228;2022-08-01T01:05:07;22.60;99.90
6581;DHT22;3324;50.796;7.228;2022-08-01T01:10:12;22.60;99.90
6581;DHT22;3324;50.796;7.228;2022-08-01T01:12:50;22.70;99.90
6581;DHT22;3324;50.796;7.228;2022-08-01T01:17:52;22.50;99.90
6581;DHT22;3324;50.796;7.228;2022-08-01T01:20:24;22.60;99.90
6581;DHT22;3324;50.796;7.228;2022-08-01T01:26:04;22.50;99.90
6581;DHT22;3324;50.796;7.228;2022-08-01T01:31:44;22.50;99.90
6581;DHT22;3324;50.796;7.228;2022-08-01T01:34:12;22.50;99.90
6581;DHT22;3324;50.796;7.228;2022-08-01T01:36:40;22.50;99.90
6581;DHT22;3324;50.796;7.228;2022-08-01T01:39:07;22.50;99.90
6581;DHT22;3324;50.796;7.228;2022-08-01T01:41:35;22.40;99.90
6581;DHT22;3324;50.796;7.228;2022-08-01T01:44:02;22.40;99.90
6581;DHT22;3324;50.796;7.228;2022-08-01T01:46:31;22.30;99.90
6581;DHT22;3324;50.796;7.228;2022-08-01T01:48:58;22.40;99.90
6581;DHT22;3324;50.796;7.228;2022-08-01T01:51:25;22.40;99.90
6581;DHT22;3324;50.796;7.228;2022-08-01T01:53:53;22.40;99.90
6581;DHT22;3324;50.796;7.228;2022-08-01T01:56:21;22.40;99.90
6581;DHT22;3324;50.796;7.228;2022-08-01T01:58:51;22.30;99.90
6581;DHT22;3324;50.796;7.228;2022-08-01T02:01:19;22.30;99.90
6581;DHT22;3324;50.796;7.228;2022-08-01T02:03:46;22.30;99.90
6581;DHT22;3324;50.796;7.228;2022-08-01T02:06:13;22.30;99.90
6581;DHT22;3324;50.796;7.228;2022-08-01T02:08:40;22.30;99.90
6581;DHT22;3324;50.796;7.228;2022-08-01T02:11:07;22.30;99.90
6581;DHT22;3324;50.796;7.228;2022-08-01T02:13:48;22.20;99.90
6581;DHT22;3324;50.796;7.228;2022-08-01T02:16:15;22.30;99.90
6581;DHT22;3324;50.796;7.228;2022-08-01T02:18:42;22.20;99.90
6581;DHT22;3324;50.796;7.228;2022-08-01T02:21:09;22.20;99.90
6581;DHT22;3324;50.796;7.228;2022-08-01T02:23:39;22.10;99.90
6581;DHT22;3324;50.796;7.228;2022-08-01T02:26:11;22.10;99.90
6581;DHT22;3324;50.796;7.228;2022-08-01T02:28:53;22.10;99.90
6581;DHT22;3324;50.796;7.228;2022-08-01T02:31:21;22.10;99.90
6581;DHT22;3324;50.796;7.228;2022-08-01T02:34:04;22.10;99.90
6581;DHT22;3324;50.796;7.228;2022-08-01T02:36:34;22.10;99.90
6581;DHT22;3324;50.796;7.228;2022-08-01T02:39:08;22.10;99.90
6581;DHT22;3324;50.796;7.228;2022-08-01T02:41:39;22.00;99.90
6581;DHT22;3324;50.796;7.228;2022-08-01T02:44:07;22.10;99.90
6581;DHT22;3324;50.796;7.228;2022-08-01T02:46:40;22.10;99.90
6581;DHT22;3324;50.796;7.228;2022-08-01T02:49:09;22.00;99.90
6581;DHT22;3324;50.796;7.228;2022-08-01T02:51:36;21.90;99.90
6581;DHT22;3324;50.796;7.228;2022-08-01T02:54:06;21.90;99.90
6581;DHT22;3324;50.796;7.228;2022-08-01T02:56:33;21.90;99.90
6581;DHT22;3324;50.796;7.228;2022-08-01T02:59:07;21.90;99.90
6581;DHT22;3324;50.796;7.228;2022-08-01T03:01:34;21.90;99.90
6581;DHT22;3324;50.796;7.228;2022-08-01T03:04:03;21.90;99.90
6581;DHT22;3324;50.796;7.228;2022-08-01T03:06:30;22.00;99.90
6581;DHT22;3324;50.796;7.228;2022-08-01T03:08:58;21.90;99.90
6581;DHT22;3324;50.796;7.228;2022-08-01T03:11:26;22.00;99.90
6581;DHT22;3324;50.796;7.228;2022-08-01T03:13:54;21.90;99.90
6581;DHT22;3324;50.796;7.228;2022-08-01T03:16:22;21.90;99.90
6581;DHT22;3324;50.796;7.228;2022-08-01T03:18:51;21.80;99.90
6581;DHT22;3324;50.796;7.228;2022-08-01T03:21:18;21.80;99.90
6581;DHT22;3324;50.796;7.228;2022-08-01T03:23:45;21.90;99.90
6581;DHT22;3324;50.796;7.228;2022-08-01T03:26:12;21.90;99.90
6581;DHT22;3324;50.796;7.228;2022-08-01T03:28:38;21.90;99.90
6581;DHT22;3324;50.796;7.228;2022-08-01T03:31:05;21.90;99.90
6581;DHT22;3324;50.796;7.228;2022-08-01T03:33:31;21.90;99.90
6581;DHT22;3324;50.796;7.228;2022-08-01T03:36:00;21.80;99.90
6581;DHT22;3324;50.796;7.228;2022-08-01T03:38:30;21.80;99.90
6581;DHT22;3324;50.796;7.228;2022-08-01T03:41:18;21.80;99.90
6581;DHT22;3324;50.796;7.228;2022-08-01T03:43:56;21.90;99.90
6581;DHT22;3324;50.796;7.228;2022-08-01T03:46:29;21.80;99.90
6581;DHT22;3324;50.796;7.228;2022-08-01T03:48:58;21.80;99.90
6581;DHT22;3324;50.796;7.228;2022-08-01T03:51:25;21.80;99.90
6581;DHT22;3324;50.796;7.228;2022-08-01T03:53:53;21.80;99.90
6581;DHT22;3324;50.796;7.228;2022-08-01T03:56:21;21.80;99.90
6581;DHT22;3324;50.796;7.228;2022-08-01T03:58:48;21.80;99.90
6581;DHT22;3324;50.796;7.228;2022-08-01T04:01:15;21.80;99.90
6581;DHT22;3324;50.796;7.228;2022-08-01T04:03:42;21.80;99.90
6581;DHT22;3324;50.796;7.228;2022-08-01T04:06:07;21.70;99.90
6581;DHT22;3324;50.796;7.228;2022-08-01T04:08:36;21.70;99.90
6581;DHT22;3324;50.796;7.228;2022-08-01T04:11:02;21.70;99.90
6581;DHT22;3324;50.796;7.228;2022-08-01T04:13:28;21.70;99.90
6581;DHT22;3324;50.796;7.228;2022-08-01T04:15:54;21.70;99.90
6581;DHT22;3324;50.796;7.228;2022-08-01T04:18:19;21.70;99.90
6581;DHT22;3324;50.796;7.228;2022-08-01T04:20:48;21.60;99.90
6581;DHT22;3324;50.796;7.228;2022-08-01T04:23:23;21.60;99.90
6581;DHT22;3324;50.796;7.228;2022-08-01T04:25:50;21.60;99.90
6581;DHT22;3324;50.796;7.228;2022-08-01T04:28:17;21.60;99.90
6581;DHT22;3324;50.796;7.228;2022-08-01T04:30:44;21.60;99.90
6581;DHT22;3324;50.796;7.228;2022-08-01T04:33:14;21.60;99.90
6581;DHT22;3324;50.796;7.228;2022-08-01T04:35:44;21.60;99.90
6581;DHT22;3324;50.796;7.228;2022-08-01T04:38:13;21.70;99.90
6581;DHT22;3324;50.796;7.228;2022-08-01T04:40:40;21.70;99.90
6581;DHT22;3324;50.796;7.228;2022-08-01T04:43:07;21.70;99.90
6581;DHT22;3324;50.796;7.228;2022-08-01T04:45:34;21.60;99.90
6581;DHT22;3324;50.796;7.228;2022-08-01T04:48:00;21.60;99.90
6581;DHT22;3324;50.796;7.228;2022-08-01T04:50:27;21.60;99.90
6581;DHT22;3324;50.796;7.228;2022-08-01T04:52:53;21.70;99.90
6581;DHT22;3324;50.796;7.228;2022-08-01T04:55:18;21.70;99.90
6581;DHT22;3324;50.796;7.228;2022-08-01T04:57:46;21.60;99.90
6581;DHT22;3324;50.796;7.228;2022-08-01T05:00:12;21.60;99.90
6581;DHT22;3324;50.796;7.228;2022-08-01T05:02:38;21.70;99.90
6581;DHT22;3324;50.796;7.228;2022-08-01T05:05:04;21.70;99.90
6581;DHT22;3324;50.796;7.228;2022-08-01T05:07:32;21.70;99.90
6581;DHT22;3324;50.796;7.228;2022-08-01T05:09:58;21.70;99.90
6581;DHT22;3324;50.796;7.228;2022-08-01T05:12:24;21.70;99.90
6581;DHT22;3324;50.796;7.228;2022-08-01T05:14:49;21.70;99.90
6581;DHT22;3324;50.796;7.228;2022-08-01T05:17:16;21.70;99.90
6581;DHT22;3324;50.796;7.228;2022-08-01T05:19:42;21.70;99.90
6581;DHT22;3324;50.796;7.228;2022-08-01T05:22:09;21.70;99.90
6581;DHT22;3324;50.796;7.228;2022-08-01T05:24:37;21.70;99.90
6581;DHT22;3324;50.796;7.228;2022-08-01T05:27:04;21.70;99.90
6581;DHT22;3324;50.796;7.228;2022-08-01T05:29:30;21.70;99.90
6581;DHT22;3324;50.796;7.228;2022-08-01T05:31:56;21.70;99.90
6581;DHT22;3324;50.796;7.228;2022-08-01T05:34:23;21.70;99.90
6581;DHT22;3324;50.796;7.228;2022-08-01T05:36:48;21.70;99.90
6581;DHT22;3324;50.796;7.228;2022-08-01T05:39:14;21.70;99.90
6581;DHT22;3324;50.796;7.228;2022-08-01T05:41:40;21.70;99.90
6581;DHT22;3324;50.796;7.228;2022-08-01T05:44:06;21.70;99.90
6581;DHT22;3324;50.796;7.228;2022-08-01T05:46:33;21.70;99.90
6581;DHT22;3324;50.796;7.228;2022-08-01T05:48:59;21.70;99.90
6581;DHT22;3324;50.796;7.228;2022-08-01T05:51:25;21.70;99.90
6581;DHT22;3324;50.796;7.228;2022-08-01T05:53:51;21.70;99.90
6581;DHT22;3324;50.796;7.228;2022-08-01T05:56:17;21.80;99.90
6581;DHT22;3324;50.796;7.228;2022-08-01T05:58:43;21.80;99.90
6581;DHT22;3324;50.796;7.228;2022-08-01T06:01:09;21.80;99.90
6581;DHT22;3324;50.796;7.228;2022-08-01T06:03:34;21.80;99.90
6581;DHT22;3324;50.796;7.228;2022-08-01T06:06:00;21.80;99.90
6581;DHT22;3324;50.796;7.228;2022-08-01T06:08:27;21.80;99.90
6581;DHT22;3324;50.796;7.228;2022-08-01T06:10:52;21.80;99.90
6581;DHT22;3324;50.796;7.228;2022-08-01T06:13:18;21.80;99.90
6581;DHT22;3324;50.796;7.228;2022-08-01T06:15:45;21.90;99.90
6581;DHT22;3324;50.796;7.228;2022-08-01T06:18:10;21.90;99.90
6581;DHT22;3324;50.796;7.228;2022-08-01T06:20:36;22.00;99.90
6581;DHT22;3324;50.796;7.228;2022-08-01T06:23:02;22.00;99.90
6581;DHT22;3324;50.796;7.228;2022-08-01T06:25:27;22.00;99.90
6581;DHT22;3324;50.796;7.228;2022-08-01T06:27:53;22.10;99.90
6581;DHT22;3324;50.796;7.228;2022-08-01T06:30:18;22.20;99.90
6581;DHT22;3324;50.796;7.228;2022-08-01T06:32:44;22.20;99.90
6581;DHT22;3324;50.796;7.228;2022-08-01T06:35:10;22.20;99.90
6581;DHT22;3324;50.796;7.228;2022-08-01T06:37:35;22.20;99.90
6581;DHT22;3324;50.796;7.228;2022-08-01T06:40:03;22.20;99.90
6581;DHT22;3324;50.796;7.228;2022-08-01T06:42:29;22.20;99.90
6581;DHT22;3324;50.796;7.228;2022-08-01T06:44:57;22.20;99.90
6581;DHT22;3324;50.796;7.228;2022-08-01T06:47:22;22.20;99.90
6581;DHT22;3324;50.796;7.228;2022-08-01T06:49:48;22.30;99.90
6581;DHT22;3324;50.796;7.228;2022-08-01T06:52:14;22.20;99.90
6581;DHT22;3324;50.796;7.228;2022-08-01T06:54:39;22.20;99.90
6581;DHT22;3324;50.796;7.228;2022-08-01T06:57:05;22.20;99.90
6581;DHT22;3324;50.796;7.228;2022-08-01T06:59:31;22.30;99.90
6581;DHT22;3324;50.796;7.228;2022-08-01T07:01:56;22.30;99.90
6581;DHT22;3324;50.796;7.228;2022-08-01T07:04:22;22.30;99.90
6581;DHT22;3324;50.796;7.228;2022-08-01T07:06:48;22.40;99.90
6581;DHT22;3324;50.796;7.228;2022-08-01T07:09:13;22.40;99.90
6581;DHT22;3324;50.796;7.228;2022-08-01T07:11:39;22.50;99.90
6581;DHT22;3324;50.796;7.228;2022-08-01T07:14:05;22.50;99.90
6581;DHT22;3324;50.796;7.228;2022-08-01T07:16:30;22.60;99.90
6581;DHT22;3324;50.796;7.228;2022-08-01T07:18:56;22.70;99.90
6581;DHT22;3324;50.796;7.228;2022-08-01T07:21:21;22.60;99.90
6581;DHT22;3324;50.796;7.228;2022-08-01T07:23:47;22.70;99.90
6581;DHT22;3324;50.796;7.228;2022-08-01T07:26:13;22.70;99.90
6581;DHT22;3324;50.796;7.228;2022-08-01T07:28:38;22.70;99.90
6581;DHT22;3324;50.796;7.228;2022-08-01T07:31:04;22.70;99.90
6581;DHT22;3324;50.796;7.228;2022-08-01T07:33:30;22.80;99.90
6581;DHT22;3324;50.796;7.228;2022-08-01T07:35:55;22.70;99.90
6581;DHT22;3324;50.796;7.228;2022-08-01T07:38:21;22.80;99.90
6581;DHT22;3324;50.796;7.228;2022-08-01T07:40:47;22.80;99.90
6581;DHT22;3324;50.796;7.228;2022-08-01T07:43:12;22.80;99.90
6581;DHT22;3324;50.796;7.228;2022-08-01T07:45:38;22.90;99.90
6581;DHT22;3324;50.796;7.228;2022-08-01T07:48:05;23.00;99.90
6581;DHT22;3324;50.796;7.228;2022-08-01T07:50:31;23.00;99.90
6581;DHT22;3324;50.796;7.228;2022-08-01T07:52:57;23.00;99.90
6581;DHT22;3324;50.796;7.228;2022-08-01T07:55:23;23.00;99.90
6581;DHT22;3324;50.796;7.228;2022-08-01T07:57:49;23.00;99.90
6581;DHT22;3324;50.796;7.228;2022-08-01T08:00:15;23.10;99.90
6581;DHT22;3324;50.796;7.228;2022-08-01T08:02:41;23.10;99.90
6581;DHT22;3324;50.796;7.228;2022-08-01T08:05:07;23.10;99.90
6581;DHT22;3324;50.796;7.228;2022-08-01T08:07:33;23.10;99.90
6581;DHT22;3324;50.796;7.228;2022-08-01T08:09:58;23.10;99.90
6581;DHT22;3324;50.796;7.228;2022-08-01T08:12:24;23.10;99.90
6581;DHT22;3324;50.796;7.228;2022-08-01T08:14:50;23.10;99.90
6581;DHT22;3324;50.796;7.228;2022-08-01T08:17:16;23.00;99.90
6581;DHT22;3324;50.796;7.228;2022-08-01T08:19:42;23.00;99.90
6581;DHT22;3324;50.796;7.228;2022-08-01T08:22:08;22.90;99.90
6581;DHT22;3324;50.796;7.228;2022-08-01T08:24:35;22.90;99.90
6581;DHT22;3324;50.796;7.228;2022-08-01T08:27:01;23.00;99.90
6581;DHT22;3324;50.796;7.228;2022-08-01T08:29:28;23.20;99.90
6581;DHT22;3324;50.796;7.228;2022-08-01T08:31:55;23.40;99.90
6581;DHT22;3324;50.796;7.228;2022-08-01T08:34:21;23.50;99.90
6581;DHT22;3324;50.796;7.228;2022-08-01T08:36:50;23.60;99.90
6581;DHT22;3324;50.796;7.228;2022-08-01T08:39:17;23.60;99.90
6581;DHT22;3324;50.796;7.228;2022-08-01T08:41:42;23.70;99.90
6581;DHT22;3324;50.796;7.228;2022-08-01T08:44:09;23.50;99.90
6581;DHT22;3324;50.796;7.228;2022-08-01T08:46:41;23.50;99.90
6581;DHT22;3324;50.796;7.228;2022-08-01T08:49:09;23.50;99.90
6581;DHT22;3324;50.796;7.228;2022-08-01T08:51:38;23.50;99.90
6581;DHT22;3324;50.796;7.228;2022-08-01T08:54:05;23.40;99.90
6581;DHT22;3324;50.796;7.228;2022-08-01T08:56:31;23.40;99.90
6581;DHT22;3324;50.796;7.228;2022-08-01T08:59:00;23.60;99.90
6581;DHT22;3324;50.796;7.228;2022-08-01T09:01:26;23.60;99.90
6581;DHT22;3324;50.796;7.228;2022-08-01T09:03:53;23.70;99.90
6581;DHT22;3324;50.796;7.228;2022-08-01T09:06:19;23.80;99.90
6581;DHT22;3324;50.796;7.228;2022-08-01T09:08:45;23.90;99.90
6581;DHT22;3324;50.796;7.228;2022-08-01T09:11:11;23.90;99.90
6581;DHT22;3324;50.796;7.228;2022-08-01T09:13:37;23.90;99.90
6581;DHT22;3324;50.796;7.228;2022-08-01T09:16:04;24.00;99.90
6581;DHT22;3324;50.796;7.228;2022-08-01T09:18:36;23.90;99.90
6581;DHT22;3324;50.796;7.228;2022-08-01T09:21:17;23.90;99.90
6581;DHT22;3324;50.796;7.228;2022-08-01T09:23:54;23.80;99.90
6581;DHT22;3324;50.796;7.228;2022-08-01T09:26:40;23.80;99.90
6581;DHT22;3324;50.796;7.228;2022-08-01T09:29:07;23.90;99.90
6581;DHT22;3324;50.796;7.228;2022-08-01T09:31:43;23.90;99.90
6581;DHT22;3324;50.796;7.228;2022-08-01T09:34:09;23.80;99.90
6581;DHT22;3324;50.796;7.228;2022-08-01T09:36:55;23.80;99.90
6581;DHT22;3324;50.796;7.228;2022-08-01T09:39:26;23.70;99.90
6581;DHT22;3324;50.796;7.228;2022-08-01T09:41:58;23.70;99.90
6581;DHT22;3324;50.796;7.228;2022-08-01T09:44:38;23.70;99.90
6581;DHT22;3324;50.796;7.228;2022-08-01T09:47:03;24.00;99.90
6581;DHT22;3324;50.796;7.228;2022-08-01T09:49:31;24.10;99.90
6581;DHT22;3324;50.796;7.228;2022-08-01T09:51:58;24.30;99.90
6581;DHT22;3324;50.796;7.228;2022-08-01T09:54:29;24.70;99.90
6581;DHT22;3324;50.796;7.228;2022-08-01T09:59:36;25.40;99.90
6581;DHT22;3324;50.796;7.228;2022-08-01T10:02:03;25.70;99.90
6581;DHT22;3324;50.796;7.228;2022-08-01T10:04:29;25.80;99.90
6581;DHT22;3324;50.796;7.228;2022-08-01T10:07:05;25.90;99.90
6581;DHT22;3324;50.796;7.228;2022-08-01T10:09:34;26.20;99.90
6581;DHT22;3324;50.796;7.228;2022-08-01T10:12:00;26.40;99.90
6581;DHT22;3324;50.796;7.228;2022-08-01T10:14:27;26.80;99.90
6581;DHT22;3324;50.796;7.228;2022-08-01T10:16:56;26.90;99.90
6581;DHT22;3324;50.796;7.228;2022-08-01T10:19:24;26.70;99.90
6581;DHT22;3324;50.796;7.228;2022-08-01T10:21:52;26.50;99.90
6581;DHT22;3324;50.796;7.228;2022-08-01T10:24:23;26.40;99.90
6581;DHT22;3324;50.796;7.228;2022-08-01T10:26:52;26.30;99.90
6581;DHT22;3324;50.796;7.228;2022-08-01T10:29:20;26.20;99.90
6581;DHT22;3324;50.796;7.228;2022-08-01T10:31:47;26.10;99.90
6581;DHT22;3324;50.796;7.228;2022-08-01T10:34:16;25.80;99.90
6581;DHT22;3324;50.796;7.228;2022-08-01T10:36:45;25.60;99.90
6581;DHT22;3324;50.796;7.228;2022-08-01T10:39:11;25.50;99.90
6581;DHT22;3324;50.796;7.228;2022-08-01T10:41:38;25.50;99.90
6581;DHT22;3324;50.796;7.228;2022-08-01T10:44:07;25.40;99.90
6581;DHT22;3324;50.796;7.228;2022-08-01T10:46:37;25.50;99.90
6581;DHT22;3324;50.796;7.228;2022-08-01T10:49:09;25.60;99.90
6581;DHT22;3324;50.796;7.228;2022-08-01T10:51:39;25.80;99.90
6581;DHT22;3324;50.796;7.228;2022-08-01T10:54:06;26.00;99.90
6581;DHT22;3324;50.796;7.228;2022-08-01T10:56:49;26.40;99.90
6581;DHT22;3324;50.796;7.228;2022-08-01T10:59:22;26.40;99.90
6581;DHT22;3324;50.796;7.228;2022-08-01T11:02:00;26.40;99.90
6581;DHT22;3324;50.796;7.228;2022-08-01T11:07:11;26.70;99.90
6581;DHT22;3324;50.796;7.228;2022-08-01T11:09:46;26.80;99.90
6581;DHT22;3324;50.796;7.228;2022-08-01T11:12:17;26.70;99.90
6581;DHT22;3324;50.796;7.228;2022-08-01T11:17:38;26.40;99.90
6581;DHT22;3324;50.796;7.228;2022-08-01T11:33:07;26.30;99.90
6581;DHT22;3324;50.796;7.228;2022-08-01T11:35:36;26.40;99.90
6581;DHT22;3324;50.796;7.228;2022-08-01T11:38:27;26.40;99.90
6581;DHT22;3324;50.796;7.228;2022-08-01T11:43:58;27.00;99.90
6581;DHT22;3324;50.796;7.228;2022-08-01T11:52:06;27.20;99.90
6581;DHT22;3324;50.796;7.228;2022-08-01T11:54:34;27.10;99.90
6581;DHT22;3324;50.796;7.228;2022-08-01T11:57:03;27.10;99.90
6581;DHT22;3324;50.796;7.228;2022-08-01T11:59:42;26.90;99.90
6581;DHT22;3324;50.796;7.228;2022-08-01T12:04:54;26.60;99.90
6581;DHT22;3324;50.796;7.228;2022-08-01T12:07:20;26.50;99.90
6581;DHT22;3324;50.796;7.228;2022-08-01T12:09:47;26.30;99.90
6581;DHT22;3324;50.796;7.228;2022-08-01T12:12:17;26.30;99.90
6581;DHT22;3324;50.796;7.228;2022-08-01T12:14:45;26.30;99.90
6581;DHT22;3324;50.796;7.228;2022-08-01T12:17:11;26.30;99.90
6581;DHT22;3324;50.796;7.228;2022-08-01T12:19:36;26.30;99.90
6581;DHT22;3324;50.796;7.228;2022-08-01T12:22:11;26.30;99.90
6581;DHT22;3324;50.796;7.228;2022-08-01T12:24:39;26.30;99.90
6581;DHT22;3324;50.796;7.228;2022-08-01T12:27:06;26.40;99.90
6581;DHT22;3324;50.796;7.228;2022-08-01T12:29:41;26.40;99.90
6581;DHT22;3324;50.796;7.228;2022-08-01T12:32:41;26.60;99.90
6581;DHT22;3324;50.796;7.228;2022-08-01T12:35:12;26.80;99.90
6581;DHT22;3324;50.796;7.228;2022-08-01T12:37:44;26.80;99.90
6581;DHT22;3324;50.796;7.228;2022-08-01T12:42:40;27.10;99.90
6581;DHT22;3324;50.796;7.228;2022-08-01T12:45:15;27.00;99.90
6581;DHT22;3324;50.796;7.228;2022-08-01T12:47:42;27.00;99.90
6581;DHT22;3324;50.796;7.228;2022-08-01T12:50:13;27.10;99.90
6581;DHT22;3324;50.796;7.228;2022-08-01T12:52:39;27.00;99.90
6581;DHT22;3324;50.796;7.228;2022-08-01T12:57:40;27.00;99.90
6581;DHT22;3324;50.796;7.228;2022-08-01T13:00:14;27.00;99.90
6581;DHT22;3324;50.796;7.228;2022-08-01T13:02:41;26.80;99.90
6581;DHT22;3324;50.796;7.228;2022-08-01T13:05:08;26.80;99.90
6581;DHT22;3324;50.796;7.228;2022-08-01T13:07:47;26.70;99.90
6581;DHT22;3324;50.796;7.228;2022-08-01T13:10:14;26.80;99.90
6581;DHT22;3324;50.796;7.228;2022-08-01T13:12:50;26.70;99.90
6581;DHT22;3324;50.796;7.228;2022-08-01T13:15:31;26.70;99.90
6581;DHT22;3324;50.796;7.228;2022-08-01T13:17:59;26.80;99.90
6581;DHT22;3324;50.796;7.228;2022-08-01T13:20:31;27.00;99.90
6581;DHT22;3324;50.796;7.228;2022-08-01T13:23:19;27.40;99.90
6581;DHT22;3324;50.796;7.228;2022-08-01T13:25:53;27.60;99.90
6581;DHT22;3324;50.796;7.228;2022-08-01T13:28:23;27.60;99.90
6581;DHT22;3324;50.796;7.228;2022-08-01T13:31:03;27.50;99.90
6581;DHT22;3324;50.796;7.228;2022-08-01T13:33:47;27.40;99.90
6581;DHT22;3324;50.796;7.228;2022-08-01T13:36:14;27.20;99.90
6581;DHT22;3324;50.796;7.228;2022-08-01T13:38:40;26.90;99.90
6581;DHT22;3324;50.796;7.228;2022-08-01T13:41:25;26.80;99.90
6581;DHT22;3324;50.796;7.228;2022-08-01T13:43:51;26.60;99.90
6581;DHT22;3324;50.796;7.228;2022-08-01T13:46:16;26.50;99.90
6581;DHT22;3324;50.796;7.228;2022-08-01T13:48:42;26.50;99.90
6581;DHT22;3324;50.796;7.228;2022-08-01T13:51:08;26.40;99.90
6581;DHT22;3324;50.796;7.228;2022-08-01T13:53:34;26.40;99.90
6581;DHT22;3324;50.796;7.228;2022-08-01T13:55:59;26.50;99.90
6581;DHT22;3324;50.796;7.228;2022-08-01T13:58:25;26.60;99.90
6581;DHT22;3324;50.796;7.228;2022-08-01T14:00:51;26.70;99.90
6581;DHT22;3324;50.796;7.228;2022-08-01T14:03:16;26.80;99.90
6581;DHT22;3324;50.796;7.228;2022-08-01T14:05:43;26.60;99.90
6581;DHT22;3324;50.796;7.228;2022-08-01T14:08:09;26.70;99.90
6581;DHT22;3324;50.796;7.228;2022-08-01T14:10:35;26.70;99.90
6581;DHT22;3324;50.796;7.228;2022-08-01T14:13:00;26.80;99.90
6581;DHT22;3324;50.796;7.228;2022-08-01T14:15:26;27.00;99.90
6581;DHT22;3324;50.796;7.228;2022-08-01T14:17:52;27.10;99.90
6581;DHT22;3324;50.796;7.228;2022-08-01T14:20:18;27.10;99.90
6581;DHT22;3324;50.796;7.228;2022-08-01T14:22:47;27.10;99.90
6581;DHT22;3324;50.796;7.228;2022-08-01T14:25:13;27.10;99.90
6581;DHT22;3324;50.796;7.228;2022-08-01T14:27:38;27.10;99.90
6581;DHT22;3324;50.796;7.228;2022-08-01T14:30:07;27.10;99.90
6581;DHT22;3324;50.796;7.228;2022-08-01T14:32:33;27.10;99.90
6581;DHT22;3324;50.796;7.228;2022-08-01T14:35:02;27.10;99.90
6581;DHT22;3324;50.796;7.228;2022-08-01T14:37:28;27.00;99.90
6581;DHT22;3324;50.796;7.228;2022-08-01T14:39:55;27.00;99.90
6581;DHT22;3324;50.796;7.228;2022-08-01T14:42:21;26.80;99.90
6581;DHT22;3324;50.796;7.228;2022-08-01T14:44:46;26.80;99.90
6581;DHT22;3324;50.796;7.228;2022-08-01T14:47:12;26.80;99.90
6581;DHT22;3324;50.796;7.228;2022-08-01T14:49:38;26.90;99.90
6581;DHT22;3324;50.796;7.228;2022-08-01T14:52:03;26.90;99.90
6581;DHT22;3324;50.796;7.228;2022-08-01T14:54:29;27.00;99.90
6581;DHT22;3324;50.796;7.228;2022-08-01T14:56:55;27.00;99.90
6581;DHT22;3324;50.796;7.228;2022-08-01T14:59:20;27.00;99.90
6581;DHT22;3324;50.796;7.228;2022-08-01T15:01:46;27.10;99.90
6581;DHT22;3324;50.796;7.228;2022-08-01T15:04:11;27.10;99.90
6581;DHT22;3324;50.796;7.228;2022-08-01T15:06:38;27.10;99.90
6581;DHT22;3324;50.796;7.228;2022-08-01T15:09:03;27.10;99.90
6581;DHT22;3324;50.796;7.228;2022-08-01T15:11:29;27.20;99.90
6581;DHT22;3324;50.796;7.228;2022-08-01T15:13:55;27.10;99.90
6581;DHT22;3324;50.796;7.228;2022-08-01T15:16:39;27.20;99.90
6581;DHT22;3324;50.796;7.228;2022-08-01T15:19:05;27.30;99.90
6581;DHT22;3324;50.796;7.228;2022-08-01T15:21:31;27.30;99.90
6581;DHT22;3324;50.796;7.228;2022-08-01T15:23:56;27.40;99.90
6581;DHT22;3324;50.796;7.228;2022-08-01T15:26:22;27.30;99.90
6581;DHT22;3324;50.796;7.228;2022-08-01T15:28:48;27.30;99.90
6581;DHT22;3324;50.796;7.228;2022-08-01T15:31:14;27.40;99.90
6581;DHT22;3324;50.796;7.228;2022-08-01T15:33:39;27.50;99.90
6581;DHT22;3324;50.796;7.228;2022-08-01T15:36:05;27.50;99.90
6581;DHT22;3324;50.796;7.228;2022-08-01T15:38:31;27.50;99.90
6581;DHT22;3324;50.796;7.228;2022-08-01T15:40:56;27.40;99.90
6581;DHT22;3324;50.796;7.228;2022-08-01T15:43:22;27.40;99.90
6581;DHT22;3324;50.796;7.228;2022-08-01T15:45:48;27.40;99.90
6581;DHT22;3324;50.796;7.228;2022-08-01T15:48:14;27.40;99.90
6581;DHT22;3324;50.796;7.228;2022-08-01T15:50:39;27.50;99.50
6581;DHT22;3324;50.796;7.228;2022-08-01T15:53:05;27.50;99.90
6581;DHT22;3324;50.796;7.228;2022-08-01T15:55:31;27.60;99.90
6581;DHT22;3324;50.796;7.228;2022-08-01T15:57:59;27.70;99.90
6581;DHT22;3324;50.796;7.228;2022-08-01T16:00:25;27.60;99.60
6581;DHT22;3324;50.796;7.228;2022-08-01T16:02:50;27.60;99.40
6581;DHT22;3324;50.796;7.228;2022-08-01T16:05:16;27.60;99.90
6581;DHT22;3324;50.796;7.228;2022-08-01T16:07:42;27.50;99.70
6581;DHT22;3324;50.796;7.228;2022-08-01T16:10:08;27.40;98.90
6581;DHT22;3324;50.796;7.228;2022-08-01T16:12:34;27.40;99.40
6581;DHT22;3324;50.796;7.228;2022-08-01T16:14:59;27.10;99.90
6581;DHT22;3324;50.796;7.228;2022-08-01T16:17:25;27.00;99.90
6581;DHT22;3324;50.796;7.228;2022-08-01T16:19:51;26.90;99.90
6581;DHT22;3324;50.796;7.228;2022-08-01T16:22:17;26.90;99.90
6581;DHT22;3324;50.796;7.228;2022-08-01T16:24:42;26.90;99.90
6581;DHT22;3324;50.796;7.228;2022-08-01T16:27:08;26.90;99.90
6581;DHT22;3324;50.796;7.228;2022-08-01T16:29:33;26.80;99.90
6581;DHT22;3324;50.796;7.228;2022-08-01T16:31:59;26.80;99.90
6581;DHT22;3324;50.796;7.228;2022-08-01T16:34:26;26.60;99.90
6581;DHT22;3324;50.796;7.228;2022-08-01T16:36:52;26.50;99.90
6581;DHT22;3324;50.796;7.228;2022-08-01T16:39:20;26.50;99.90
6581;DHT22;3324;50.796;7.228;2022-08-01T16:41:46;26.50;99.90
6581;DHT22;3324;50.796;7.228;2022-08-01T16:44:12;26.40;99.90
6581;DHT22;3324;50.796;7.228;2022-08-01T16:46:37;26.30;99.90
6581;DHT22;3324;50.796;7.228;2022-08-01T16:49:03;26.20;99.90
6581;DHT22;3324;50.796;7.228;2022-08-01T16:51:31;26.20;99.90
6581;DHT22;3324;50.796;7.228;2022-08-01T16:53:56;26.10;99.90
6581;DHT22;3324;50.796;7.228;2022-08-01T16:56:22;26.00;99.90